Time;durP1;ratioP1;P1;durP2;ratioP2;P2;SDS_P1;SDS_P2;PMS_P1;PMS_P2;Temp;Humidity;BMP_temperature;BMP_pressure;BME280_temperature;BME280_humidity;BME280_pressure;Samples;Min_cycle;Max_cycle;Signal;HPM_P1;HPM_P2
2022/10/26 00:00:09;;;;;;;614.07;580.43;;;11.40;99.90;;;;;;4980590;28;20855;-82
2022/10/26 00:02:36;;;;;;;611.23;578.23;;;11.40;99.90;;;;;;4979999;28;20459;-84
2022/10/26 00:05:02;;;;;;;617.53;584.53;;;11.40;99.90;;;;;;4979360;28;20458;-82
2022/10/26 00:07:29;;;;;;;620.97;587.93;;;11.40;99.90;;;;;;4980113;28;20518;-84
2022/10/26 00:09:57;;;;;;;619.10;585.90;;;11.30;99.90;;;;;;4979655;28;20478;-83
2022/10/26 00:12:24;;;;;;;634.20;599.87;;;11.30;99.90;;;;;;4978119;28;20477;-84
2022/10/26 00:14:51;;;;;;;637.83;603.07;;;11.30;99.90;;;;;;4978209;28;20459;-83
2022/10/26 00:17:19;;;;;;;620.77;587.17;;;11.30;99.90;;;;;;4978587;28;20841;-83
2022/10/26 00:19:46;;;;;;;598.93;567.13;;;11.40;99.90;;;;;;4978233;28;20483;-84
2022/10/26 00:22:12;;;;;;;590.60;559.47;;;11.30;99.90;;;;;;4978538;28;20470;-83
2022/10/26 00:24:39;;;;;;;580.87;551.20;;;11.40;99.90;;;;;;4977783;28;20458;-84
2022/10/26 00:27:07;;;;;;;555.03;527.23;;;11.50;99.90;;;;;;4978315;28;20525;-83
2022/10/26 00:29:34;;;;;;;532.80;506.80;;;11.50;99.90;;;;;;4978636;28;20482;-83
2022/10/26 00:32:00;;;;;;;530.10;505.00;;;11.50;99.90;;;;;;4978163;28;20989;-83
2022/10/26 00:34:27;;;;;;;511.33;487.13;;;11.50;99.90;;;;;;4978184;28;20470;-83
2022/10/26 00:36:54;;;;;;;495.67;473.27;;;11.50;99.90;;;;;;4978461;28;20459;-83
2022/10/26 00:39:21;;;;;;;485.57;464.27;;;11.60;99.90;;;;;;4979484;28;20483;-83
2022/10/26 00:41:47;;;;;;;481.27;460.27;;;11.60;99.90;;;;;;4978048;28;20463;-84
2022/10/26 00:44:51;;;;;;;470.67;450.03;;;11.50;99.90;;;;;;4977873;28;20466;-83
2022/10/26 00:47:27;;;;;;;470.00;450.10;;;11.60;99.90;;;;;;4977666;28;20479;-83
2022/10/26 00:49:57;;;;;;;471.73;451.50;;;11.50;99.90;;;;;;4978030;28;21031;-84
2022/10/26 00:52:25;;;;;;;456.63;437.63;;;11.60;99.90;;;;;;4978574;28;20459;-83
2022/10/26 00:54:52;;;;;;;453.00;434.20;;;11.60;99.90;;;;;;4978251;28;20459;-84
2022/10/26 00:57:20;;;;;;;467.80;447.50;;;11.60;99.90;;;;;;4978088;28;20518;-84
2022/10/26 00:59:47;;;;;;;474.30;454.10;;;11.60;99.90;;;;;;4978761;28;20980;-84
2022/10/26 01:02:14;;;;;;;486.07;465.30;;;11.60;99.90;;;;;;4978300;28;20486;-84
2022/10/26 01:04:42;;;;;;;496.03;474.53;;;11.60;99.90;;;;;;4977494;28;20481;-84
2022/10/26 01:07:09;;;;;;;515.57;492.13;;;11.60;99.90;;;;;;4978292;28;20858;-85
2022/10/26 01:09:36;;;;;;;529.57;505.17;;;11.60;99.90;;;;;;4978062;28;20992;-84
2022/10/26 01:12:03;;;;;;;533.43;508.33;;;11.60;99.90;;;;;;4977859;28;20458;-84
2022/10/26 01:14:30;;;;;;;527.37;502.80;;;11.50;99.90;;;;;;4977762;28;20466;-84
2022/10/26 01:17:04;;;;;;;505.40;481.83;;;11.60;99.90;;;;;;4978721;28;20997;-84
2022/10/26 01:20:05;;;;;;;457.43;436.90;;;11.70;99.90;;;;;;4977866;28;20494;-84
2022/10/26 01:22:38;;;;;;;419.67;402.00;;;11.70;99.90;;;;;;4977441;28;20481;-84
2022/10/26 01:25:16;;;;;;;368.97;354.00;;;11.70;99.90;;;;;;4977480;28;20451;-84
2022/10/26 01:27:46;;;;;;;347.80;333.70;;;11.80;99.90;;;;;;4978437;28;20905;-83
2022/10/26 01:30:20;;;;;;;353.20;339.40;;;11.80;99.90;;;;;;4977671;28;20475;-84
2022/10/26 01:33:01;;;;;;;326.27;313.77;;;11.80;99.90;;;;;;4978013;28;20542;-84
2022/10/26 01:35:31;;;;;;;322.40;310.20;;;11.80;99.90;;;;;;4978004;28;20458;-84
2022/10/26 01:38:03;;;;;;;337.27;324.17;;;11.90;99.90;;;;;;4978126;28;20465;-85
2022/10/26 01:40:36;;;;;;;348.57;334.93;;;11.80;99.90;;;;;;4978335;28;20493;-85
2022/10/26 01:43:07;;;;;;;337.17;324.17;;;11.80;99.90;;;;;;4978026;28;20816;-84
2022/10/26 01:45:38;;;;;;;342.10;329.00;;;11.80;99.90;;;;;;4977677;28;20443;-85
2022/10/26 01:48:07;;;;;;;342.30;329.17;;;11.80;99.90;;;;;;4977932;28;20455;-84
2022/10/26 01:50:35;;;;;;;345.50;332.07;;;11.70;99.90;;;;;;4978364;28;20889;-84
2022/10/26 01:53:02;;;;;;;359.80;345.07;;;11.80;99.90;;;;;;4978087;28;20462;-84
2022/10/26 01:55:47;;;;;;;366.10;351.67;;;11.80;99.90;;;;;;4977181;28;20451;-84
2022/10/26 01:58:32;;;;;;;376.97;362.07;;;11.80;99.90;;;;;;4977505;28;20470;-84
2022/10/26 02:01:12;;;;;;;376.40;360.90;;;11.80;99.90;;;;;;4974898;28;20969;-84
2022/10/26 02:03:45;;;;;;;385.23;369.73;;;11.80;99.90;;;;;;4977787;28;20465;-84
2022/10/26 02:06:22;;;;;;;391.10;375.27;;;11.70;99.90;;;;;;4978815;28;20486;-84
2022/10/26 02:08:57;;;;;;;392.27;376.07;;;11.80;99.90;;;;;;4978018;28;20485;-84
2022/10/26 02:11:37;;;;;;;401.67;385.30;;;11.80;99.90;;;;;;4987542;28;20539;-83
2022/10/26 02:14:12;;;;;;;405.27;387.97;;;11.80;99.90;;;;;;4989551;28;20458;-84
2022/10/26 02:16:49;;;;;;;417.40;399.60;;;11.80;99.90;;;;;;4978883;28;20464;-84
2022/10/26 02:19:29;;;;;;;414.57;396.87;;;11.80;99.90;;;;;;4986924;28;20481;-85
2022/10/26 02:22:02;;;;;;;410.97;392.83;;;11.90;99.90;;;;;;4978031;28;20498;-84
2022/10/26 02:24:31;;;;;;;390.90;373.97;;;11.90;99.90;;;;;;4977428;28;20470;-83
2022/10/26 02:27:00;;;;;;;368.70;353.03;;;11.90;99.90;;;;;;4977119;28;20470;-84
2022/10/26 02:29:30;;;;;;;354.43;339.50;;;11.90;99.90;;;;;;4977207;28;20485;-84
2022/10/26 02:32:00;;;;;;;329.63;315.87;;;12.00;99.90;;;;;;4977156;28;20459;-84
2022/10/26 02:34:29;;;;;;;320.97;307.97;;;12.00;99.90;;;;;;4977013;28;20455;-84
2022/10/26 02:37:00;;;;;;;322.00;308.90;;;12.00;99.90;;;;;;4979508;28;20461;-84
2022/10/26 02:39:31;;;;;;;318.10;305.40;;;12.00;99.90;;;;;;4981459;28;20483;-84
2022/10/26 02:42:01;;;;;;;320.80;307.90;;;12.00;99.90;;;;;;4980970;28;20890;-84
2022/10/26 02:44:40;;;;;;;320.33;307.90;;;12.10;99.90;;;;;;4982752;28;20459;-83
2022/10/26 02:47:08;;;;;;;296.37;284.97;;;12.10;99.90;;;;;;4980665;28;20482;-84
2022/10/26 02:49:35;;;;;;;291.17;279.77;;;12.10;99.90;;;;;;4980461;28;20501;-83
2022/10/26 02:52:09;;;;;;;293.10;281.90;;;12.10;99.90;;;;;;4980834;28;20455;-84
2022/10/26 02:54:44;;;;;;;293.67;281.87;;;12.10;99.90;;;;;;4980673;28;20463;-84
2022/10/26 02:57:14;;;;;;;295.00;283.60;;;12.10;99.90;;;;;;4980455;28;20443;-84
2022/10/26 02:59:46;;;;;;;296.20;284.67;;;12.10;99.90;;;;;;4980222;28;20471;-85
2022/10/26 03:02:16;;;;;;;314.70;302.20;;;12.10;99.90;;;;;;4980471;28;20470;-84
2022/10/26 03:04:43;;;;;;;317.17;304.67;;;12.10;99.90;;;;;;4980029;28;20455;-84
2022/10/26 03:07:09;;;;;;;311.00;298.90;;;12.10;99.90;;;;;;4980055;28;20479;-85
2022/10/26 03:09:36;;;;;;;301.27;289.67;;;12.10;99.90;;;;;;4980751;28;20477;-85
2022/10/26 03:12:03;;;;;;;296.40;284.70;;;12.20;99.90;;;;;;4980248;28;20466;-84
2022/10/26 03:14:30;;;;;;;289.10;277.67;;;12.10;99.90;;;;;;4980790;28;20461;-85
2022/10/26 03:16:56;;;;;;;291.33;279.83;;;12.20;99.90;;;;;;4980497;28;20451;-84
2022/10/26 03:19:25;;;;;;;303.00;291.20;;;12.20;99.90;;;;;;4980736;28;20478;-84
2022/10/26 03:21:51;;;;;;;309.50;297.30;;;12.20;99.90;;;;;;4980726;28;20458;-84
2022/10/26 03:24:18;;;;;;;300.53;288.73;;;12.20;99.90;;;;;;4979597;28;20455;-85
2022/10/26 03:26:45;;;;;;;300.10;286.97;;;12.30;99.90;;;;;;4980003;28;20486;-83
2022/10/26 03:29:11;;;;;;;306.67;294.47;;;12.30;99.90;;;;;;4980154;28;20483;-84
2022/10/26 03:31:38;;;;;;;310.03;297.90;;;12.40;99.90;;;;;;4980332;28;20838;-84
2022/10/26 03:34:05;;;;;;;311.27;299.17;;;12.30;99.90;;;;;;4980167;28;20459;-84
2022/10/26 03:36:33;;;;;;;306.70;294.50;;;12.30;99.90;;;;;;4980923;28;20459;-84
2022/10/26 03:39:00;;;;;;;309.73;297.30;;;12.40;99.90;;;;;;4980049;28;20486;-84
2022/10/26 03:41:26;;;;;;;322.00;309.20;;;12.40;99.90;;;;;;4980349;28;20477;-85
2022/10/26 03:43:53;;;;;;;327.37;314.60;;;12.40;99.90;;;;;;4979812;28;20855;-85
2022/10/26 03:46:20;;;;;;;315.00;302.70;;;12.40;99.90;;;;;;4980335;28;20470;-85
2022/10/26 03:48:46;;;;;;;317.13;304.77;;;12.50;99.90;;;;;;4979137;28;20478;-84
2022/10/26 03:51:13;;;;;;;305.63;293.30;;;12.40;99.90;;;;;;4979595;28;20726;-85
2022/10/26 03:53:41;;;;;;;305.10;293.03;;;12.50;99.90;;;;;;4979441;28;20451;-85
2022/10/26 03:56:08;;;;;;;300.73;289.13;;;12.50;99.90;;;;;;4980068;28;20459;-85
2022/10/26 03:58:35;;;;;;;256.00;246.23;;;12.50;99.90;;;;;;4979756;28;20469;-84
2022/10/26 04:01:01;;;;;;;225.00;216.73;;;12.60;99.90;;;;;;4979275;28;20462;-85
2022/10/26 04:03:28;;;;;;;196.90;189.87;;;12.70;99.90;;;;;;4979265;28;20455;-85
2022/10/26 04:05:56;;;;;;;173.70;167.30;;;12.70;99.90;;;;;;4979386;28;20455;-85
2022/10/26 04:08:23;;;;;;;161.93;155.97;;;12.70;99.90;;;;;;4979523;28;20483;-85
2022/10/26 04:10:51;;;;;;;156.97;150.90;;;12.70;99.90;;;;;;4979520;28;20478;-85
2022/10/26 04:13:18;;;;;;;179.80;173.40;;;12.80;99.90;;;;;;4979422;28;20455;-85
2022/10/26 04:15:45;;;;;;;189.23;182.20;;;12.80;99.90;;;;;;4979457;28;20459;-84
2022/10/26 04:18:12;;;;;;;206.70;198.60;;;12.80;99.90;;;;;;4979271;28;20458;-84
2022/10/26 04:20:41;;;;;;;214.40;206.87;;;12.80;99.90;;;;;;4979418;28;20483;-85
2022/10/26 04:23:12;;;;;;;214.57;206.67;;;12.80;99.90;;;;;;4979493;28;20462;-85
2022/10/26 04:25:38;;;;;;;227.33;219.10;;;12.80;99.90;;;;;;4979037;28;20451;-85
2022/10/26 04:28:07;;;;;;;239.00;230.03;;;12.70;99.90;;;;;;4979145;28;20489;-85
2022/10/26 04:30:35;;;;;;;244.37;235.17;;;12.60;99.90;;;;;;4978828;28;20478;-85
2022/10/26 04:33:02;;;;;;;253.87;244.27;;;12.70;99.90;;;;;;4979113;28;20462;-84
2022/10/26 04:35:29;;;;;;;271.40;260.97;;;12.60;99.90;;;;;;4978911;28;20876;-84
2022/10/26 04:37:58;;;;;;;286.20;274.60;;;12.60;99.90;;;;;;4979022;28;20976;-85
2022/10/26 04:40:26;;;;;;;289.83;278.40;;;12.60;99.90;;;;;;4978728;28;20997;-85
2022/10/26 04:42:53;;;;;;;302.73;290.33;;;12.60;99.90;;;;;;4978853;28;20527;-85
2022/10/26 04:45:23;;;;;;;310.57;297.77;;;12.60;99.90;;;;;;4978574;28;20463;-85
2022/10/26 04:48:00;;;;;;;315.17;302.43;;;12.60;99.90;;;;;;4979025;28;20589;-85
2022/10/26 04:50:27;;;;;;;322.20;309.10;;;12.60;99.90;;;;;;4978688;28;20490;-85
2022/10/26 04:52:54;;;;;;;316.23;302.83;;;12.60;99.90;;;;;;4979146;28;20851;-85
2022/10/26 04:55:21;;;;;;;308.27;295.07;;;12.60;99.90;;;;;;4978159;28;20459;-85
2022/10/26 04:57:47;;;;;;;294.73;282.50;;;12.60;99.90;;;;;;4980207;28;20836;-85
2022/10/26 05:00:14;;;;;;;271.97;260.97;;;12.70;99.90;;;;;;4978657;28;20479;-84
2022/10/26 05:02:42;;;;;;;265.30;254.50;;;12.70;99.90;;;;;;4978912;28;20462;-84
2022/10/26 05:05:10;;;;;;;263.93;252.93;;;12.70;99.90;;;;;;4978768;28;20964;-85
2022/10/26 05:07:37;;;;;;;252.97;242.60;;;12.80;99.90;;;;;;4978227;28;20856;-84
2022/10/26 05:10:04;;;;;;;239.90;230.20;;;12.90;99.90;;;;;;4978667;28;20471;-85
2022/10/26 05:12:31;;;;;;;240.30;230.00;;;12.90;99.90;;;;;;4978249;28;20451;-85
2022/10/26 05:14:58;;;;;;;239.80;230.30;;;12.90;99.90;;;;;;4977783;28;20566;-85
2022/10/26 05:17:27;;;;;;;247.27;237.40;;;12.90;99.90;;;;;;4978715;28;20843;-85
2022/10/26 05:19:57;;;;;;;252.30;241.70;;;12.90;99.90;;;;;;4978476;28;20558;-85
2022/10/26 05:22:23;;;;;;;242.07;231.97;;;12.90;99.90;;;;;;4978146;28;20509;-85
2022/10/26 05:24:50;;;;;;;240.40;230.80;;;12.90;99.90;;;;;;4977465;28;20459;-84
2022/10/26 05:27:17;;;;;;;255.17;244.77;;;12.90;99.90;;;;;;4978373;28;20479;-85
2022/10/26 05:29:44;;;;;;;249.87;239.80;;;12.90;99.90;;;;;;4977594;28;20475;-85
2022/10/26 05:32:11;;;;;;;241.60;232.00;;;12.90;99.90;;;;;;4977968;28;20830;-85
2022/10/26 05:34:37;;;;;;;234.43;224.30;;;12.90;99.90;;;;;;4977946;28;20462;-85
2022/10/26 05:37:05;;;;;;;239.10;229.57;;;13.10;99.90;;;;;;4977836;28;20455;-85
2022/10/26 05:39:32;;;;;;;252.77;242.80;;;12.90;99.90;;;;;;4977612;28;20483;-85
2022/10/26 05:41:59;;;;;;;274.17;262.57;;;12.90;99.90;;;;;;4978193;28;20469;-85
2022/10/26 05:44:26;;;;;;;276.67;264.67;;;13.00;99.90;;;;;;4977430;28;20973;-85
2022/10/26 05:46:52;;;;;;;281.90;269.90;;;12.80;99.90;;;;;;4978075;28;20470;-85
2022/10/26 05:49:19;;;;;;;296.30;284.10;;;12.90;99.90;;;;;;4978279;28;20482;-85
2022/10/26 05:51:46;;;;;;;305.97;293.27;;;12.90;99.90;;;;;;4977731;28;20463;-85
2022/10/26 05:54:14;;;;;;;311.23;298.43;;;12.90;99.90;;;;;;4977643;28;20482;-84
2022/10/26 05:56:41;;;;;;;310.13;297.40;;;12.90;99.90;;;;;;4980059;28;20458;-84
2022/10/26 05:59:12;;;;;;;324.07;310.57;;;12.90;99.90;;;;;;4977527;28;20471;-84
2022/10/26 06:01:52;;;;;;;336.07;322.10;;;12.90;99.90;;;;;;4977843;28;20450;-84
2022/10/26 06:04:30;;;;;;;340.70;325.70;;;12.90;99.90;;;;;;4977079;28;20473;-85
2022/10/26 06:06:58;;;;;;;344.20;329.20;;;12.90;99.90;;;;;;4977991;28;20458;-84
2022/10/26 06:09:27;;;;;;;350.13;335.03;;;12.90;99.90;;;;;;4977954;28;21000;-84
2022/10/26 06:11:54;;;;;;;344.83;329.60;;;13.00;99.90;;;;;;4980139;28;20477;-85
2022/10/26 06:14:21;;;;;;;335.80;321.70;;;13.00;99.90;;;;;;4982080;28;20477;-85
2022/10/26 06:17:04;;;;;;;332.87;318.97;;;13.10;99.90;;;;;;4982062;28;20455;-84
2022/10/26 06:19:47;;;;;;;318.37;304.53;;;13.10;99.90;;;;;;4982587;28;20491;-85
2022/10/26 06:22:28;;;;;;;317.90;304.53;;;13.10;99.90;;;;;;4981385;28;20458;-85
2022/10/26 06:25:01;;;;;;;304.80;292.30;;;13.10;99.90;;;;;;4981733;28;20968;-85
2022/10/26 06:27:38;;;;;;;296.20;283.67;;;13.10;99.90;;;;;;4983456;28;20497;-86
2022/10/26 06:30:08;;;;;;;288.63;277.03;;;13.10;99.90;;;;;;4983469;28;20462;-84
2022/10/26 06:32:36;;;;;;;269.57;259.20;;;13.20;99.90;;;;;;4981610;28;20461;-85
2022/10/26 06:35:15;;;;;;;251.10;241.47;;;13.20;99.90;;;;;;4981368;28;20966;-84
2022/10/26 06:37:44;;;;;;;215.27;207.23;;;13.30;99.90;;;;;;4981062;28;20455;-84
2022/10/26 06:40:14;;;;;;;175.40;168.67;;;13.20;99.90;;;;;;4982254;28;20486;-84
2022/10/26 06:42:41;;;;;;;138.37;133.07;;;13.50;99.90;;;;;;4981596;28;20459;-85
2022/10/26 06:45:12;;;;;;;86.20;82.77;;;13.60;99.90;;;;;;4981161;28;20517;-84
2022/10/26 06:47:44;;;;;;;46.73;44.63;;;13.70;99.90;;;;;;4981854;28;20479;-85
2022/10/26 06:50:25;;;;;;;41.47;39.30;;;13.80;99.90;;;;;;4981171;28;20486;-84
2022/10/26 06:53:01;;;;;;;43.90;42.00;;;13.80;99.90;;;;;;4982368;28;20459;-84
2022/10/26 06:55:38;;;;;;;44.73;42.73;;;13.90;99.90;;;;;;4981011;28;20450;-84
2022/10/26 06:58:05;;;;;;;38.03;36.43;;;14.00;99.90;;;;;;4982630;28;20456;-84
2022/10/26 07:00:32;;;;;;;32.27;30.87;;;14.00;99.90;;;;;;4981668;28;20849;-84
2022/10/26 07:03:14;;;;;;;20.50;19.23;;;14.10;99.90;;;;;;4983896;28;20458;-83
2022/10/26 07:05:41;;;;;;;20.27;19.33;;;14.20;99.90;;;;;;4979162;28;20444;-84
2022/10/26 07:08:07;;;;;;;16.90;16.00;;;14.40;99.90;;;;;;4981595;28;20859;-83
2022/10/26 07:10:37;;;;;;;14.73;13.83;;;14.50;99.90;;;;;;4980858;28;21019;-84
2022/10/26 07:13:04;;;;;;;11.20;10.20;;;14.60;99.90;;;;;;4981476;28;20473;-84
2022/10/26 07:15:31;;;;;;;10.90;9.10;;;14.70;99.90;;;;;;4980223;28;20459;-84
2022/10/26 07:17:58;;;;;;;12.67;11.43;;;14.70;99.90;;;;;;4979636;28;20462;-83
2022/10/26 07:20:24;;;;;;;10.90;10.10;;;14.80;99.90;;;;;;4980040;28;20490;-83
2022/10/26 07:22:52;;;;;;;15.93;14.10;;;14.80;99.90;;;;;;4978888;28;20467;-84
2022/10/26 07:25:19;;;;;;;14.70;13.57;;;14.90;99.90;;;;;;4979789;28;20958;-84
2022/10/26 07:27:47;;;;;;;14.23;11.87;;;15.10;99.90;;;;;;4979659;28;20637;-84
2022/10/26 07:30:14;;;;;;;12.23;11.20;;;14.80;99.90;;;;;;4980678;28;20482;-84
2022/10/26 07:32:41;;;;;;;16.70;14.80;;;14.90;99.90;;;;;;4979888;28;20591;-84
2022/10/26 07:35:08;;;;;;;15.20;14.00;;;14.90;99.90;;;;;;4980051;28;20451;-84
2022/10/26 07:37:35;;;;;;;15.53;14.23;;;14.90;99.90;;;;;;4980555;28;20489;-84
2022/10/26 07:40:02;;;;;;;17.97;16.30;;;15.10;99.90;;;;;;4979950;28;20490;-84
2022/10/26 07:42:28;;;;;;;16.87;15.30;;;15.10;99.90;;;;;;4980420;28;20452;-85
2022/10/26 07:44:56;;;;;;;16.73;15.67;;;15.10;99.90;;;;;;4979303;28;20457;-84
2022/10/26 07:47:23;;;;;;;20.40;18.53;;;15.00;99.90;;;;;;4980095;28;20458;-84
2022/10/26 07:49:50;;;;;;;23.20;21.90;;;14.80;99.90;;;;;;4980899;28;20566;-83
2022/10/26 07:52:17;;;;;;;30.47;28.87;;;14.90;99.90;;;;;;4979920;28;20453;-84
2022/10/26 07:54:43;;;;;;;34.40;32.70;;;14.80;99.90;;;;;;4979899;28;20456;-84
2022/10/26 07:57:10;;;;;;;41.83;39.83;;;14.80;99.90;;;;;;4979312;28;20813;-84
2022/10/26 07:59:37;;;;;;;50.80;48.27;;;14.70;99.90;;;;;;4978866;28;20475;-84
2022/10/26 08:02:05;;;;;;;58.87;56.47;;;14.60;99.90;;;;;;4980002;28;20456;-84
2022/10/26 08:04:31;;;;;;;75.53;72.43;;;14.70;99.90;;;;;;4979971;28;20466;-84
2022/10/26 08:06:58;;;;;;;78.10;75.10;;;14.70;99.90;;;;;;4979900;28;20462;-84
2022/10/26 08:09:26;;;;;;;89.23;85.50;;;14.70;99.90;;;;;;4979569;28;20482;-84
2022/10/26 08:11:53;;;;;;;91.07;87.57;;;14.70;99.90;;;;;;4979792;28;20465;-84
2022/10/26 08:14:20;;;;;;;94.43;90.43;;;14.70;99.90;;;;;;4979656;28;20872;-84
2022/10/26 08:16:51;;;;;;;105.23;100.93;;;14.80;99.90;;;;;;4979759;28;20463;-84
2022/10/26 08:19:19;;;;;;;90.53;87.13;;;14.90;99.90;;;;;;4979956;28;20481;-84
2022/10/26 08:21:45;;;;;;;76.77;73.43;;;14.90;99.90;;;;;;4979372;28;20461;-84
2022/10/26 08:24:12;;;;;;;64.17;61.37;;;15.00;99.90;;;;;;4979233;28;20462;-84
2022/10/26 08:26:39;;;;;;;73.87;70.97;;;15.10;99.90;;;;;;4979979;28;20464;-85
2022/10/26 08:29:06;;;;;;;46.87;44.00;;;15.30;99.90;;;;;;4980246;28;20509;-84
2022/10/26 08:31:33;;;;;;;23.37;22.03;;;15.40;99.90;;;;;;4980671;28;20483;-85
2022/10/26 08:34:00;;;;;;;18.20;17.00;;;15.40;99.90;;;;;;4985625;28;20457;-84
2022/10/26 08:36:28;;;;;;;15.97;14.53;;;15.30;99.90;;;;;;4994175;28;20457;-85
2022/10/26 08:38:55;;;;;;;16.67;15.13;;;15.30;99.90;;;;;;4992928;28;20484;-84
2022/10/26 08:41:33;;;;;;;17.20;16.00;;;15.30;99.90;;;;;;4993185;28;20467;-83
2022/10/26 08:44:06;;;;;;;16.20;15.10;;;15.30;99.90;;;;;;4989773;28;20467;-84
2022/10/26 08:46:37;;;;;;;15.43;13.97;;;15.20;99.90;;;;;;4978773;28;20468;-84
2022/10/26 08:49:13;;;;;;;21.03;19.20;;;15.20;99.90;;;;;;4979626;28;20497;-84
2022/10/26 08:51:42;;;;;;;31.63;30.13;;;15.30;99.90;;;;;;4979055;28;20547;-84
2022/10/26 08:54:14;;;;;;;43.80;41.37;;;15.40;99.90;;;;;;4979418;28;20461;-83
2022/10/26 08:56:43;;;;;;;48.00;45.60;;;15.50;99.90;;;;;;4978835;28;20460;-84
2022/10/26 08:59:15;;;;;;;61.37;58.87;;;15.60;99.90;;;;;;4978731;28;20476;-84
2022/10/26 09:01:42;;;;;;;38.43;36.27;;;15.90;99.90;;;;;;4980015;28;20445;-85
2022/10/26 09:04:12;;;;;;;18.83;17.73;;;16.20;99.90;;;;;;4979353;28;20458;-85
2022/10/26 09:06:53;;;;;;;11.90;8.40;;;16.30;99.90;;;;;;4980046;28;20989;-84
2022/10/26 09:09:25;;;;;;;12.00;7.53;;;16.30;99.90;;;;;;4979306;28;20493;-84
2022/10/26 09:12:04;;;;;;;6.07;4.90;;;16.20;99.90;;;;;;4979383;28;20461;-85
2022/10/26 09:14:42;;;;;;;11.10;5.43;;;16.20;99.90;;;;;;4979739;28;20461;-84
2022/10/26 09:17:17;;;;;;;9.03;5.97;;;16.40;99.90;;;;;;4978714;28;20456;-84
2022/10/26 09:20:01;;;;;;;9.70;4.83;;;16.40;99.90;;;;;;4979687;28;20856;-84
2022/10/26 09:22:35;;;;;;;5.70;3.57;;;16.70;99.90;;;;;;4979221;28;20484;-84
2022/10/26 09:25:15;;;;;;;10.23;3.70;;;17.00;99.90;;;;;;4978583;28;20985;-85
2022/10/26 09:27:47;;;;;;;8.50;2.90;;;17.50;99.90;;;;;;4979348;28;20458;-84
2022/10/26 09:30:16;;;;;;;7.10;2.20;;;18.00;99.90;;;;;;4978427;28;20871;-84
2022/10/26 09:32:46;;;;;;;8.03;2.73;;;18.40;99.90;;;;;;4978827;28;20461;-85
2022/10/26 09:35:18;;;;;;;6.40;2.10;;;18.90;99.90;;;;;;4977951;28;20456;-85
2022/10/26 09:37:51;;;;;;;12.80;2.77;;;19.50;97.70;;;;;;4978097;28;20461;-85
2022/10/26 09:40:23;;;;;;;12.53;2.63;;;19.70;95.50;;;;;;4978990;28;20490;-85
2022/10/26 09:42:56;;;;;;;7.63;2.70;;;20.10;95.10;;;;;;4977805;28;20480;-85
2022/10/26 09:45:29;;;;;;;7.47;2.80;;;20.60;94.80;;;;;;4977173;28;20497;-85
2022/10/26 09:48:00;;;;;;;8.03;2.80;;;20.80;92.40;;;;;;4981761;28;20465;-83
2022/10/26 09:50:30;;;;;;;12.17;2.00;;;21.30;92.20;;;;;;4978135;28;20463;-85
2022/10/26 09:52:58;;;;;;;10.23;3.03;;;21.70;90.90;;;;;;4978852;28;20461;-85
2022/10/26 09:55:26;;;;;;;7.53;2.37;;;21.80;90.00;;;;;;4978009;28;20861;-84
2022/10/26 09:57:57;;;;;;;8.07;2.00;;;21.60;89.00;;;;;;4977465;28;20500;-86
2022/10/26 10:00:25;;;;;;;15.63;2.73;;;21.70;88.00;;;;;;4978308;28;20474;-85
2022/10/26 10:02:53;;;;;;;8.13;2.57;;;21.90;87.80;;;;;;4978010;28;20891;-83
2022/10/26 10:05:23;;;;;;;12.87;3.23;;;22.60;89.40;;;;;;4978156;28;20945;-85
2022/10/26 10:07:49;;;;;;;7.50;2.27;;;22.90;84.60;;;;;;4978097;28;20462;-84
2022/10/26 10:10:19;;;;;;;11.23;3.13;;;22.70;82.80;;;;;;4978346;28;20479;-85
2022/10/26 10:12:49;;;;;;;8.33;2.50;;;22.70;80.60;;;;;;4978051;28;20972;-86
2022/10/26 10:15:22;;;;;;;10.50;3.00;;;22.60;81.30;;;;;;4977850;28;20451;-85
2022/10/26 10:17:50;;;;;;;7.70;2.53;;;22.60;81.60;;;;;;4977532;28;20477;-85
2022/10/26 10:20:22;;;;;;;16.17;3.60;;;22.90;82.80;;;;;;4977667;28;20830;-85
2022/10/26 10:22:57;;;;;;;19.67;5.27;;;23.20;81.10;;;;;;4978107;28;20451;-85
2022/10/26 10:25:32;;;;;;;10.03;2.63;;;23.50;79.30;;;;;;4978305;28;20810;-85
2022/10/26 10:27:59;;;;;;;15.00;4.30;;;23.50;78.50;;;;;;4979948;28;20458;-87
2022/10/26 10:30:30;;;;;;;20.00;5.10;;;24.00;78.60;;;;;;4981733;28;20487;-87
2022/10/26 10:33:07;;;;;;;12.93;3.73;;;24.30;77.70;;;;;;4982092;28;20495;-86
2022/10/26 10:35:34;;;;;;;18.63;6.00;;;24.40;76.30;;;;;;4982209;28;20454;-87
2022/10/26 10:38:01;;;;;;;19.53;4.03;;;24.30;74.00;;;;;;4981477;28;20451;-86
2022/10/26 10:40:30;;;;;;;7.47;2.27;;;24.50;74.20;;;;;;4978025;28;20539;-86
2022/10/26 10:43:06;;;;;;;10.53;2.40;;;24.70;72.90;;;;;;4977955;28;20644;-85
2022/10/26 10:45:34;;;;;;;7.10;2.23;;;24.50;71.70;;;;;;4977591;28;20458;-84
2022/10/26 10:48:02;;;;;;;12.53;4.00;;;24.90;69.70;;;;;;4978334;28;20450;-84
2022/10/26 10:50:30;;;;;;;5.03;1.60;;;24.90;71.00;;;;;;4978864;28;20494;-83
2022/10/26 10:53:24;;;;;;;8.50;1.73;;;25.20;69.30;;;;;;4983279;28;20459;-85
2022/10/26 10:56:13;;;;;;;6.53;2.17;;;25.00;64.70;;;;;;4983157;28;20450;-85
2022/10/26 10:58:48;;;;;;;11.80;2.17;;;24.70;66.80;;;;;;4987325;28;20468;-84
2022/10/26 11:01:21;;;;;;;14.13;3.40;;;24.70;65.60;;;;;;4982626;28;20457;-84
2022/10/26 11:04:07;;;;;;;6.70;1.47;;;24.70;68.00;;;;;;4982084;28;21079;-84
2022/10/26 11:06:37;;;;;;;11.67;2.20;;;24.60;66.00;;;;;;4980776;28;20454;-86
2022/10/26 11:09:07;;;;;;;6.10;1.87;;;24.70;66.10;;;;;;4963967;28;20492;-86
2022/10/26 11:11:38;;;;;;;9.97;1.77;;;24.20;67.10;;;;;;4963476;28;20958;-86
2022/10/26 11:14:10;;;;;;;7.23;1.30;;;24.50;68.40;;;;;;4963534;28;20466;-86
2022/10/26 11:16:40;;;;;;;5.30;2.00;;;24.10;66.60;;;;;;4964379;28;20460;-86
2022/10/26 11:19:15;;;;;;;4.53;1.17;;;24.10;65.90;;;;;;4963129;28;20471;-87
2022/10/26 11:21:45;;;;;;;5.60;1.30;;;24.50;65.90;;;;;;4963517;28;20464;-86
2022/10/26 11:24:18;;;;;;;5.00;0.90;;;24.50;66.50;;;;;;4962527;29;20487;-87
2022/10/26 11:26:51;;;;;;;5.10;1.70;;;24.70;66.10;;;;;;4963642;28;20477;-86
2022/10/26 11:29:33;;;;;;;8.03;1.33;;;24.90;64.40;;;;;;4962890;28;20515;-86
2022/10/26 11:32:07;;;;;;;13.57;1.80;;;24.50;64.20;;;;;;4963290;29;20452;-86
2022/10/26 11:34:39;;;;;;;5.33;1.30;;;24.60;65.00;;;;;;4963660;29;20466;-87
2022/10/26 11:37:13;;;;;;;10.60;1.60;;;24.40;64.70;;;;;;4962984;28;20467;-86
2022/10/26 11:39:45;;;;;;;6.40;1.40;;;24.60;66.00;;;;;;4962936;28;20491;-87
2022/10/26 11:42:24;;;;;;;7.33;1.60;;;25.20;63.40;;;;;;4965110;28;20471;-86
2022/10/26 11:44:55;;;;;;;8.67;1.33;;;24.70;60.50;;;;;;4963598;28;20891;-86
2022/10/26 11:47:29;;;;;;;7.40;1.10;;;24.70;60.90;;;;;;4963849;28;20533;-86
2022/10/26 11:50:04;;;;;;;5.37;1.57;;;24.50;60.70;;;;;;4963420;28;20494;-87
2022/10/26 11:52:37;;;;;;;5.30;1.00;;;24.60;63.50;;;;;;4963303;28;20460;-86
2022/10/26 11:55:05;;;;;;;4.10;1.20;;;24.30;62.20;;;;;;4962562;28;20824;-86
2022/10/26 11:57:35;;;;;;;5.30;1.37;;;24.60;63.20;;;;;;4962140;28;20950;-86
2022/10/26 12:00:05;;;;;;;4.23;1.47;;;24.60;62.30;;;;;;4962882;28;20494;-86
2022/10/26 12:02:37;;;;;;;4.10;1.30;;;24.80;62.90;;;;;;4963119;28;20466;-86
2022/10/26 12:05:16;;;;;;;4.30;1.03;;;24.50;62.90;;;;;;4964485;28;20487;-86
2022/10/26 12:07:48;;;;;;;5.40;1.33;;;24.70;61.20;;;;;;4981382;28;20454;-86
2022/10/26 12:10:24;;;;;;;6.30;1.83;;;24.80;61.50;;;;;;4981078;28;20482;-85
2022/10/26 12:13:01;;;;;;;4.97;1.20;;;25.10;60.00;;;;;;4981622;28;20469;-87
2022/10/26 12:15:32;;;;;;;4.57;1.20;;;24.10;60.40;;;;;;4981640;28;20454;-84
2022/10/26 12:18:07;;;;;;;6.77;1.30;;;23.30;64.90;;;;;;4982793;28;20462;-86
2022/10/26 12:20:54;;;;;;;4.73;1.23;;;23.30;66.00;;;;;;4982416;28;20474;-86
2022/10/26 12:23:23;;;;;;;6.10;1.37;;;23.50;65.90;;;;;;4981824;28;20455;-85
2022/10/26 12:25:50;;;;;;;4.60;1.37;;;23.70;66.20;;;;;;4982342;28;20455;-86
2022/10/26 12:28:41;;;;;;;10.80;1.20;;;23.70;65.20;;;;;;4981358;28;20454;-86
2022/10/26 12:31:43;;;;;;;4.60;1.53;;;23.90;65.10;;;;;;4977138;28;21004;-86
2022/10/26 12:34:13;;;;;;;5.40;1.70;;;24.40;63.80;;;;;;4979703;28;20521;-86
2022/10/26 12:36:50;;;;;;;5.03;1.30;;;24.50;61.40;;;;;;4979069;28;20519;-86